sensor_id;sensor_type;location;lat;lon;timestamp;P1;durP1;ratioP1;P2;durP2;ratioP2
65583;SDS011;62116;43.582;1.470;2022-08-01T00:00:11;4.90;;;1.63;;
65583;SDS011;62116;43.582;1.470;2022-08-01T00:02:37;3.08;;;1.73;;
65583;SDS011;62116;43.582;1.470;2022-08-01T00:05:03;3.67;;;1.50;;
65583;SDS011;62116;43.582;1.470;2022-08-01T00:07:36;2.10;;;1.40;;
65583;SDS011;62116;43.582;1.470;2022-08-01T00:10:06;4.43;;;1.50;;
65583;SDS011;62116;43.582;1.470;2022-08-01T00:12:36;2.47;;;1.40;;
65583;SDS011;62116;43.582;1.470;2022-08-01T00:15:02;1.85;;;1.40;;
65583;SDS011;62116;43.582;1.470;2022-08-01T00:17:28;2.92;;;1.50;;
65583;SDS011;62116;43.582;1.470;2022-08-01T00:19:54;5.30;;;1.70;;
65583;SDS011;62116;43.582;1.470;2022-08-01T00:22:19;3.30;;;1.63;;
65583;SDS011;62116;43.582;1.470;2022-08-01T00:24:45;3.70;;;1.80;;
65583;SDS011;62116;43.582;1.470;2022-08-01T00:27:10;2.75;;;1.85;;
65583;SDS011;62116;43.582;1.470;2022-08-01T00:29:35;3.60;;;1.80;;
65583;SDS011;62116;43.582;1.470;2022-08-01T00:32:01;3.53;;;2.00;;
65583;SDS011;62116;43.582;1.470;2022-08-01T00:34:26;3.30;;;2.00;;
65583;SDS011;62116;43.582;1.470;2022-08-01T00:36:51;4.45;;;1.75;;
65583;SDS011;62116;43.582;1.470;2022-08-01T00:39:17;2.70;;;2.00;;
65583;SDS011;62116;43.582;1.470;2022-08-01T00:41:42;4.43;;;1.90;;
65583;SDS011;62116;43.582;1.470;2022-08-01T00:44:08;3.05;;;1.73;;
65583;SDS011;62116;43.582;1.470;2022-08-01T00:46:33;3.58;;;1.90;;
65583;SDS011;62116;43.582;1.470;2022-08-01T00:48:59;3.83;;;2.03;;
65583;SDS011;62116;43.582;1.470;2022-08-01T00:51:25;4.70;;;2.10;;
65583;SDS011;62116;43.582;1.470;2022-08-01T00:53:51;2.95;;;2.10;;
65583;SDS011;62116;43.582;1.470;2022-08-01T00:56:18;2.53;;;1.70;;
65583;SDS011;62116;43.582;1.470;2022-08-01T00:58:45;4.80;;;2.10;;
65583;SDS011;62116;43.582;1.470;2022-08-01T01:01:11;3.38;;;2.03;;
65583;SDS011;62116;43.582;1.470;2022-08-01T01:03:36;4.53;;;2.10;;
65583;SDS011;62116;43.582;1.470;2022-08-01T01:06:08;3.20;;;2.10;;
65583;SDS011;62116;43.582;1.470;2022-08-01T01:09:21;4.53;;;2.30;;
65583;SDS011;62116;43.582;1.470;2022-08-01T01:17:21;3.38;;;2.03;;
65583;SDS011;62116;43.582;1.470;2022-08-01T01:19:54;4.28;;;2.00;;
65583;SDS011;62116;43.582;1.470;2022-08-01T01:30:46;3.65;;;2.00;;
65583;SDS011;62116;43.582;1.470;2022-08-01T01:33:16;3.13;;;2.08;;
65583;SDS011;62116;43.582;1.470;2022-08-01T01:35:43;4.18;;;2.33;;
65583;SDS011;62116;43.582;1.470;2022-08-01T01:38:17;3.22;;;2.10;;
65583;SDS011;62116;43.582;1.470;2022-08-01T01:40:46;5.43;;;2.33;;
65583;SDS011;62116;43.582;1.470;2022-08-01T01:43:13;4.78;;;2.20;;
65583;SDS011;62116;43.582;1.470;2022-08-01T01:45:40;4.15;;;2.35;;
65583;SDS011;62116;43.582;1.470;2022-08-01T01:48:07;3.55;;;1.90;;
65583;SDS011;62116;43.582;1.470;2022-08-01T01:50:35;3.75;;;2.30;;
65583;SDS011;62116;43.582;1.470;2022-08-01T01:53:01;6.80;;;2.42;;
65583;SDS011;62116;43.582;1.470;2022-08-01T01:55:29;5.20;;;2.17;;
65583;SDS011;62116;43.582;1.470;2022-08-01T01:57:55;4.20;;;2.20;;
65583;SDS011;62116;43.582;1.470;2022-08-01T02:00:22;4.55;;;2.10;;
65583;SDS011;62116;43.582;1.470;2022-08-01T02:02:49;4.50;;;2.30;;
65583;SDS011;62116;43.582;1.470;2022-08-01T02:05:18;3.63;;;2.35;;
65583;SDS011;62116;43.582;1.470;2022-08-01T02:07:43;5.22;;;2.30;;
65583;SDS011;62116;43.582;1.470;2022-08-01T02:10:10;5.50;;;2.10;;
65583;SDS011;62116;43.582;1.470;2022-08-01T02:12:37;3.72;;;2.20;;
65583;SDS011;62116;43.582;1.470;2022-08-01T02:15:06;4.05;;;2.25;;
65583;SDS011;62116;43.582;1.470;2022-08-01T02:17:34;3.80;;;2.00;;
65583;SDS011;62116;43.582;1.470;2022-08-01T02:20:08;4.80;;;2.00;;
65583;SDS011;62116;43.582;1.470;2022-08-01T02:22:36;5.47;;;2.10;;
65583;SDS011;62116;43.582;1.470;2022-08-01T02:27:41;4.65;;;2.10;;
65583;SDS011;62116;43.582;1.470;2022-08-01T02:32:58;4.03;;;2.30;;
65583;SDS011;62116;43.582;1.470;2022-08-01T02:35:28;4.88;;;2.20;;
65583;SDS011;62116;43.582;1.470;2022-08-01T02:37:57;4.70;;;2.00;;
65583;SDS011;62116;43.582;1.470;2022-08-01T02:40:23;4.13;;;2.15;;
65583;SDS011;62116;43.582;1.470;2022-08-01T02:42:56;3.40;;;2.00;;
65583;SDS011;62116;43.582;1.470;2022-08-01T02:45:24;6.60;;;1.95;;
65583;SDS011;62116;43.582;1.470;2022-08-01T02:47:51;5.47;;;2.00;;
65583;SDS011;62116;43.582;1.470;2022-08-01T02:50:22;6.30;;;2.42;;
65583;SDS011;62116;43.582;1.470;2022-08-01T02:52:49;2.75;;;2.00;;
65583;SDS011;62116;43.582;1.470;2022-08-01T02:55:16;4.55;;;2.10;;
65583;SDS011;62116;43.582;1.470;2022-08-01T02:57:44;3.00;;;2.05;;
65583;SDS011;62116;43.582;1.470;2022-08-01T03:00:13;2.85;;;1.80;;
65583;SDS011;62116;43.582;1.470;2022-08-01T03:02:40;4.60;;;2.42;;
65583;SDS011;62116;43.582;1.470;2022-08-01T03:05:08;4.53;;;2.35;;
65583;SDS011;62116;43.582;1.470;2022-08-01T03:07:36;5.40;;;2.10;;
65583;SDS011;62116;43.582;1.470;2022-08-01T03:10:04;3.20;;;2.10;;
65583;SDS011;62116;43.582;1.470;2022-08-01T03:12:30;3.90;;;2.10;;
65583;SDS011;62116;43.582;1.470;2022-08-01T03:14:58;3.85;;;2.10;;
65583;SDS011;62116;43.582;1.470;2022-08-01T03:17:26;6.20;;;2.10;;
65583;SDS011;62116;43.582;1.470;2022-08-01T03:19:53;3.72;;;2.30;;
65583;SDS011;62116;43.582;1.470;2022-08-01T03:22:21;3.60;;;2.10;;
65583;SDS011;62116;43.582;1.470;2022-08-01T03:24:50;3.75;;;2.10;;
65583;SDS011;62116;43.582;1.470;2022-08-01T03:27:19;3.17;;;2.03;;
65583;SDS011;62116;43.582;1.470;2022-08-01T03:29:45;4.45;;;2.20;;
65583;SDS011;62116;43.582;1.470;2022-08-01T03:32:13;4.30;;;1.90;;
65583;SDS011;62116;43.582;1.470;2022-08-01T03:34:41;6.40;;;2.10;;
65583;SDS011;62116;43.582;1.470;2022-08-01T03:39:49;4.47;;;2.20;;
65583;SDS011;62116;43.582;1.470;2022-08-01T03:42:20;3.55;;;2.00;;
65583;SDS011;62116;43.582;1.470;2022-08-01T03:44:54;4.00;;;2.15;;
65583;SDS011;62116;43.582;1.470;2022-08-01T03:47:24;3.15;;;2.17;;
65583;SDS011;62116;43.582;1.470;2022-08-01T03:52:21;2.90;;;1.92;;
65583;SDS011;62116;43.582;1.470;2022-08-01T03:54:48;2.72;;;2.00;;
65583;SDS011;62116;43.582;1.470;2022-08-01T03:57:16;5.07;;;2.17;;
65583;SDS011;62116;43.582;1.470;2022-08-01T03:59:42;5.38;;;2.15;;
65583;SDS011;62116;43.582;1.470;2022-08-01T04:02:08;6.18;;;2.40;;
65583;SDS011;62116;43.582;1.470;2022-08-01T04:04:34;4.38;;;2.00;;
65583;SDS011;62116;43.582;1.470;2022-08-01T04:07:00;4.57;;;2.17;;
65583;SDS011;62116;43.582;1.470;2022-08-01T04:09:31;2.95;;;2.03;;
65583;SDS011;62116;43.582;1.470;2022-08-01T04:12:00;5.72;;;2.15;;
65583;SDS011;62116;43.582;1.470;2022-08-01T04:14:26;4.20;;;2.00;;
65583;SDS011;62116;43.582;1.470;2022-08-01T04:16:53;4.45;;;2.28;;
65583;SDS011;62116;43.582;1.470;2022-08-01T04:19:19;3.47;;;2.00;;
65583;SDS011;62116;43.582;1.470;2022-08-01T04:21:44;5.32;;;2.10;;
65583;SDS011;62116;43.582;1.470;2022-08-01T04:24:12;3.03;;;1.85;;
65583;SDS011;62116;43.582;1.470;2022-08-01T04:29:08;8.00;;;2.40;;
65583;SDS011;62116;43.582;1.470;2022-08-01T04:31:35;4.63;;;2.10;;
65583;SDS011;62116;43.582;1.470;2022-08-01T04:34:04;4.22;;;2.05;;
65583;SDS011;62116;43.582;1.470;2022-08-01T04:36:32;5.18;;;2.10;;
65583;SDS011;62116;43.582;1.470;2022-08-01T04:39:00;6.43;;;1.90;;
65583;SDS011;62116;43.582;1.470;2022-08-01T04:41:27;4.22;;;1.92;;
65583;SDS011;62116;43.582;1.470;2022-08-01T04:43:54;4.18;;;2.15;;
65583;SDS011;62116;43.582;1.470;2022-08-01T04:46:20;5.05;;;2.03;;
65583;SDS011;62116;43.582;1.470;2022-08-01T04:48:47;3.72;;;2.03;;
65583;SDS011;62116;43.582;1.470;2022-08-01T04:51:16;4.32;;;2.10;;
65583;SDS011;62116;43.582;1.470;2022-08-01T04:53:43;4.90;;;2.27;;
65583;SDS011;62116;43.582;1.470;2022-08-01T04:56:11;3.80;;;2.10;;
65583;SDS011;62116;43.582;1.470;2022-08-01T04:58:38;4.78;;;2.10;;
65583;SDS011;62116;43.582;1.470;2022-08-01T05:01:07;5.47;;;1.77;;
65583;SDS011;62116;43.582;1.470;2022-08-01T05:03:32;5.20;;;2.28;;
65583;SDS011;62116;43.582;1.470;2022-08-01T05:05:58;7.18;;;2.20;;
65583;SDS011;62116;43.582;1.470;2022-08-01T05:08:24;6.00;;;2.38;;
65583;SDS011;62116;43.582;1.470;2022-08-01T05:10:49;5.82;;;2.22;;
65583;SDS011;62116;43.582;1.470;2022-08-01T05:13:15;4.80;;;2.10;;
65583;SDS011;62116;43.582;1.470;2022-08-01T05:15:40;4.78;;;2.10;;
65583;SDS011;62116;43.582;1.470;2022-08-01T05:18:06;4.72;;;1.98;;
65583;SDS011;62116;43.582;1.470;2022-08-01T05:20:31;5.20;;;2.30;;
65583;SDS011;62116;43.582;1.470;2022-08-01T05:22:57;4.50;;;2.25;;
65583;SDS011;62116;43.582;1.470;2022-08-01T05:25:22;4.80;;;2.17;;
65583;SDS011;62116;43.582;1.470;2022-08-01T05:27:48;4.65;;;2.40;;
65583;SDS011;62116;43.582;1.470;2022-08-01T05:30:14;5.65;;;2.40;;
65583;SDS011;62116;43.582;1.470;2022-08-01T05:32:40;6.10;;;2.38;;
65583;SDS011;62116;43.582;1.470;2022-08-01T05:35:06;7.18;;;2.45;;
65583;SDS011;62116;43.582;1.470;2022-08-01T05:37:32;5.22;;;2.50;;
65583;SDS011;62116;43.582;1.470;2022-08-01T05:39:58;5.45;;;2.60;;
65583;SDS011;62116;43.582;1.470;2022-08-01T05:42:23;8.30;;;2.90;;
65583;SDS011;62116;43.582;1.470;2022-08-01T05:44:49;5.18;;;2.40;;
65583;SDS011;62116;43.582;1.470;2022-08-01T05:47:15;4.90;;;2.60;;
65583;SDS011;62116;43.582;1.470;2022-08-01T05:49:42;5.55;;;2.58;;
65583;SDS011;62116;43.582;1.470;2022-08-01T05:52:08;4.85;;;2.70;;
65583;SDS011;62116;43.582;1.470;2022-08-01T05:54:34;6.32;;;3.10;;
65583;SDS011;62116;43.582;1.470;2022-08-01T05:56:59;8.43;;;3.00;;
65583;SDS011;62116;43.582;1.470;2022-08-01T05:59:26;8.52;;;3.00;;
65583;SDS011;62116;43.582;1.470;2022-08-01T06:01:55;7.57;;;3.05;;
65583;SDS011;62116;43.582;1.470;2022-08-01T06:04:21;7.07;;;3.17;;
65583;SDS011;62116;43.582;1.470;2022-08-01T06:06:46;4.80;;;3.08;;
65583;SDS011;62116;43.582;1.470;2022-08-01T06:09:12;6.40;;;3.20;;
65583;SDS011;62116;43.582;1.470;2022-08-01T06:11:37;7.78;;;3.47;;
65583;SDS011;62116;43.582;1.470;2022-08-01T06:14:03;7.53;;;3.67;;
65583;SDS011;62116;43.582;1.470;2022-08-01T06:16:29;5.85;;;3.03;;
65583;SDS011;62116;43.582;1.470;2022-08-01T06:18:54;9.90;;;3.67;;
65583;SDS011;62116;43.582;1.470;2022-08-01T06:21:20;5.72;;;3.28;;
65583;SDS011;62116;43.582;1.470;2022-08-01T06:23:45;8.18;;;3.60;;
65583;SDS011;62116;43.582;1.470;2022-08-01T06:26:10;7.25;;;3.70;;
65583;SDS011;62116;43.582;1.470;2022-08-01T06:28:36;8.48;;;3.60;;
65583;SDS011;62116;43.582;1.470;2022-08-01T06:31:02;10.00;;;3.80;;
65583;SDS011;62116;43.582;1.470;2022-08-01T06:33:27;7.10;;;3.75;;
65583;SDS011;62116;43.582;1.470;2022-08-01T06:35:53;12.25;;;3.97;;
65583;SDS011;62116;43.582;1.470;2022-08-01T06:38:19;7.20;;;3.72;;
65583;SDS011;62116;43.582;1.470;2022-08-01T06:40:44;9.23;;;3.80;;
65583;SDS011;62116;43.582;1.470;2022-08-01T06:43:10;9.13;;;4.07;;
65583;SDS011;62116;43.582;1.470;2022-08-01T06:45:39;6.97;;;3.95;;
65583;SDS011;62116;43.582;1.470;2022-08-01T06:48:05;8.85;;;4.35;;
65583;SDS011;62116;43.582;1.470;2022-08-01T06:50:31;8.68;;;4.05;;
65583;SDS011;62116;43.582;1.470;2022-08-01T06:52:57;8.68;;;4.28;;
65583;SDS011;62116;43.582;1.470;2022-08-01T06:55:22;6.65;;;4.10;;
65583;SDS011;62116;43.582;1.470;2022-08-01T06:57:49;7.18;;;4.22;;
65583;SDS011;62116;43.582;1.470;2022-08-01T07:00:18;9.73;;;4.43;;
65583;SDS011;62116;43.582;1.470;2022-08-01T07:05:17;6.35;;;4.00;;
65583;SDS011;62116;43.582;1.470;2022-08-01T07:07:44;8.57;;;4.40;;
65583;SDS011;62116;43.582;1.470;2022-08-01T07:10:09;11.43;;;4.60;;
65583;SDS011;62116;43.582;1.470;2022-08-01T07:12:35;8.57;;;4.30;;
65583;SDS011;62116;43.582;1.470;2022-08-01T07:15:04;6.70;;;4.40;;
65583;SDS011;62116;43.582;1.470;2022-08-01T07:17:29;9.00;;;4.50;;
65583;SDS011;62116;43.582;1.470;2022-08-01T07:19:55;8.15;;;4.03;;
65583;SDS011;62116;43.582;1.470;2022-08-01T07:22:20;6.00;;;4.10;;
65583;SDS011;62116;43.582;1.470;2022-08-01T07:24:46;8.50;;;4.22;;
65583;SDS011;62116;43.582;1.470;2022-08-01T07:27:11;7.03;;;3.70;;
65583;SDS011;62116;43.582;1.470;2022-08-01T07:29:37;7.85;;;4.18;;
65583;SDS011;62116;43.582;1.470;2022-08-01T07:32:02;6.68;;;3.90;;
65583;SDS011;62116;43.582;1.470;2022-08-01T07:34:28;7.80;;;4.20;;
65583;SDS011;62116;43.582;1.470;2022-08-01T07:36:53;6.57;;;3.78;;
65583;SDS011;62116;43.582;1.470;2022-08-01T07:39:19;7.93;;;4.03;;
65583;SDS011;62116;43.582;1.470;2022-08-01T07:41:45;7.60;;;4.18;;
65583;SDS011;62116;43.582;1.470;2022-08-01T07:44:10;9.93;;;4.30;;
65583;SDS011;62116;43.582;1.470;2022-08-01T07:46:35;6.50;;;3.72;;
65583;SDS011;62116;43.582;1.470;2022-08-01T07:49:01;8.43;;;3.70;;
65583;SDS011;62116;43.582;1.470;2022-08-01T07:51:27;6.18;;;3.53;;
65583;SDS011;62116;43.582;1.470;2022-08-01T07:53:52;5.80;;;3.75;;
65583;SDS011;62116;43.582;1.470;2022-08-01T07:56:17;7.10;;;3.92;;
65583;SDS011;62116;43.582;1.470;2022-08-01T07:58:43;8.18;;;3.83;;
65583;SDS011;62116;43.582;1.470;2022-08-01T08:01:08;6.53;;;3.80;;
65583;SDS011;62116;43.582;1.470;2022-08-01T08:03:34;9.55;;;3.42;;
65583;SDS011;62116;43.582;1.470;2022-08-01T08:05:59;8.23;;;3.60;;
65583;SDS011;62116;43.582;1.470;2022-08-01T08:08:25;6.32;;;3.58;;
65583;SDS011;62116;43.582;1.470;2022-08-01T08:10:50;10.15;;;3.90;;
65583;SDS011;62116;43.582;1.470;2022-08-01T08:13:16;4.90;;;3.25;;
65583;SDS011;62116;43.582;1.470;2022-08-01T08:15:41;6.63;;;3.75;;
65583;SDS011;62116;43.582;1.470;2022-08-01T08:18:06;6.68;;;3.47;;
65583;SDS011;62116;43.582;1.470;2022-08-01T08:20:32;9.55;;;3.63;;
65583;SDS011;62116;43.582;1.470;2022-08-01T08:22:57;12.38;;;3.70;;
65583;SDS011;62116;43.582;1.470;2022-08-01T08:25:23;6.25;;;3.10;;
65583;SDS011;62116;43.582;1.470;2022-08-01T08:27:50;11.48;;;3.50;;
65583;SDS011;62116;43.582;1.470;2022-08-01T08:30:15;7.43;;;3.45;;
65583;SDS011;62116;43.582;1.470;2022-08-01T08:32:41;5.93;;;3.20;;
65583;SDS011;62116;43.582;1.470;2022-08-01T08:35:07;8.55;;;3.35;;
65583;SDS011;62116;43.582;1.470;2022-08-01T08:37:36;6.90;;;3.25;;
65583;SDS011;62116;43.582;1.470;2022-08-01T08:40:03;11.43;;;3.20;;
65583;SDS011;62116;43.582;1.470;2022-08-01T08:42:29;5.30;;;3.20;;
65583;SDS011;62116;43.582;1.470;2022-08-01T08:44:55;6.07;;;3.20;;
65583;SDS011;62116;43.582;1.470;2022-08-01T08:47:21;6.90;;;3.42;;
65583;SDS011;62116;43.582;1.470;2022-08-01T08:49:48;6.00;;;3.00;;
65583;SDS011;62116;43.582;1.470;2022-08-01T08:52:20;6.57;;;3.38;;
65583;SDS011;62116;43.582;1.470;2022-08-01T08:54:47;5.45;;;2.80;;
65583;SDS011;62116;43.582;1.470;2022-08-01T08:57:14;8.90;;;3.60;;
65583;SDS011;62116;43.582;1.470;2022-08-01T08:59:42;9.65;;;3.47;;
65583;SDS011;62116;43.582;1.470;2022-08-01T09:02:08;7.97;;;3.10;;
65583;SDS011;62116;43.582;1.470;2022-08-01T09:04:35;7.63;;;3.50;;
65583;SDS011;62116;43.582;1.470;2022-08-01T09:07:03;4.40;;;3.10;;
65583;SDS011;62116;43.582;1.470;2022-08-01T09:09:29;7.57;;;3.40;;
65583;SDS011;62116;43.582;1.470;2022-08-01T09:11:55;6.32;;;3.35;;
65583;SDS011;62116;43.582;1.470;2022-08-01T09:14:21;7.38;;;3.47;;
65583;SDS011;62116;43.582;1.470;2022-08-01T09:16:58;4.88;;;3.30;;
65583;SDS011;62116;43.582;1.470;2022-08-01T09:19:26;7.40;;;3.20;;
65583;SDS011;62116;43.582;1.470;2022-08-01T09:22:04;7.68;;;3.70;;
65583;SDS011;62116;43.582;1.470;2022-08-01T09:24:32;7.20;;;3.17;;
65583;SDS011;62116;43.582;1.470;2022-08-01T09:26:59;12.93;;;3.47;;
65583;SDS011;62116;43.582;1.470;2022-08-01T09:29:27;5.13;;;3.17;;
65583;SDS011;62116;43.582;1.470;2022-08-01T09:31:55;6.00;;;3.75;;
65583;SDS011;62116;43.582;1.470;2022-08-01T09:36:52;5.90;;;3.50;;
65583;SDS011;62116;43.582;1.470;2022-08-01T09:39:24;8.07;;;3.50;;
65583;SDS011;62116;43.582;1.470;2022-08-01T09:41:54;8.05;;;3.90;;
65583;SDS011;62116;43.582;1.470;2022-08-01T09:44:39;8.30;;;3.67;;
65583;SDS011;62116;43.582;1.470;2022-08-01T09:47:08;8.45;;;4.00;;
65583;SDS011;62116;43.582;1.470;2022-08-01T09:49:35;6.63;;;3.65;;
65583;SDS011;62116;43.582;1.470;2022-08-01T09:52:10;11.32;;;3.85;;
65583;SDS011;62116;43.582;1.470;2022-08-01T09:54:37;6.18;;;3.60;;
65583;SDS011;62116;43.582;1.470;2022-08-01T09:57:07;6.55;;;3.80;;
65583;SDS011;62116;43.582;1.470;2022-08-01T09:59:40;8.02;;;3.65;;
65583;SDS011;62116;43.582;1.470;2022-08-01T10:02:11;8.48;;;3.83;;
65583;SDS011;62116;43.582;1.470;2022-08-01T10:04:49;8.20;;;4.15;;
65583;SDS011;62116;43.582;1.470;2022-08-01T10:07:16;12.25;;;3.90;;
65583;SDS011;62116;43.582;1.470;2022-08-01T10:09:42;6.65;;;3.45;;
65583;SDS011;62116;43.582;1.470;2022-08-01T10:12:09;7.88;;;3.55;;
65583;SDS011;62116;43.582;1.470;2022-08-01T10:14:37;8.15;;;3.83;;
65583;SDS011;62116;43.582;1.470;2022-08-01T10:17:04;8.68;;;3.72;;
65583;SDS011;62116;43.582;1.470;2022-08-01T10:19:32;7.40;;;3.70;;
65583;SDS011;62116;43.582;1.470;2022-08-01T10:22:01;5.20;;;3.42;;
65583;SDS011;62116;43.582;1.470;2022-08-01T10:24:29;7.20;;;3.90;;
65583;SDS011;62116;43.582;1.470;2022-08-01T10:26:57;7.22;;;3.63;;
65583;SDS011;62116;43.582;1.470;2022-08-01T10:29:27;5.85;;;3.40;;
65583;SDS011;62116;43.582;1.470;2022-08-01T10:31:55;6.85;;;3.30;;
65583;SDS011;62116;43.582;1.470;2022-08-01T10:34:21;8.95;;;3.72;;
65583;SDS011;62116;43.582;1.470;2022-08-01T10:36:47;6.00;;;3.28;;
65583;SDS011;62116;43.582;1.470;2022-08-01T10:39:13;12.02;;;3.88;;
65583;SDS011;62116;43.582;1.470;2022-08-01T10:41:39;8.38;;;3.85;;
65583;SDS011;62116;43.582;1.470;2022-08-01T10:44:08;6.78;;;3.47;;
65583;SDS011;62116;43.582;1.470;2022-08-01T10:46:38;5.68;;;3.85;;
65583;SDS011;62116;43.582;1.470;2022-08-01T10:49:06;5.35;;;3.45;;
65583;SDS011;62116;43.582;1.470;2022-08-01T10:51:36;5.28;;;3.60;;
65583;SDS011;62116;43.582;1.470;2022-08-01T10:54:05;6.47;;;3.60;;
65583;SDS011;62116;43.582;1.470;2022-08-01T10:57:05;5.05;;;3.35;;
65583;SDS011;62116;43.582;1.470;2022-08-01T10:59:25;6.25;;;3.58;;
65583;SDS011;62116;43.582;1.470;2022-08-01T11:01:59;8.80;;;3.95;;
65583;SDS011;62116;43.582;1.470;2022-08-01T11:07:43;9.38;;;3.70;;
65583;SDS011;62116;43.582;1.470;2022-08-01T11:10:15;6.32;;;3.67;;
65583;SDS011;62116;43.582;1.470;2022-08-01T11:12:46;7.22;;;3.75;;
65583;SDS011;62116;43.582;1.470;2022-08-01T11:17:41;5.82;;;3.53;;
65583;SDS011;62116;43.582;1.470;2022-08-01T11:20:15;7.47;;;3.90;;
65583;SDS011;62116;43.582;1.470;2022-08-01T11:30:38;5.72;;;3.35;;
65583;SDS011;62116;43.582;1.470;2022-08-01T11:33:04;5.88;;;3.40;;
65583;SDS011;62116;43.582;1.470;2022-08-01T11:35:31;4.50;;;3.22;;
65583;SDS011;62116;43.582;1.470;2022-08-01T11:38:08;4.90;;;3.25;;
65583;SDS011;62116;43.582;1.470;2022-08-01T11:41:12;6.38;;;3.30;;
65583;SDS011;62116;43.582;1.470;2022-08-01T11:52:10;7.20;;;3.60;;
65583;SDS011;62116;43.582;1.470;2022-08-01T11:54:39;6.47;;;3.60;;
65583;SDS011;62116;43.582;1.470;2022-08-01T11:57:12;5.60;;;3.42;;
65583;SDS011;62116;43.582;1.470;2022-08-01T11:59:49;5.38;;;3.10;;
65583;SDS011;62116;43.582;1.470;2022-08-01T12:02:20;5.25;;;3.00;;
65583;SDS011;62116;43.582;1.470;2022-08-01T12:07:24;5.35;;;3.10;;
65583;SDS011;62116;43.582;1.470;2022-08-01T12:09:58;5.40;;;3.50;;
65583;SDS011;62116;43.582;1.470;2022-08-01T12:12:28;5.63;;;3.65;;
65583;SDS011;62116;43.582;1.470;2022-08-01T12:14:58;6.68;;;3.70;;
65583;SDS011;62116;43.582;1.470;2022-08-01T12:17:38;6.30;;;3.33;;
65583;SDS011;62116;43.582;1.470;2022-08-01T12:20:07;7.88;;;3.17;;
65583;SDS011;62116;43.582;1.470;2022-08-01T12:22:44;4.88;;;2.80;;
65583;SDS011;62116;43.582;1.470;2022-08-01T12:25:10;5.38;;;3.00;;
65583;SDS011;62116;43.582;1.470;2022-08-01T12:27:39;4.43;;;3.00;;
65583;SDS011;62116;43.582;1.470;2022-08-01T12:30:09;5.13;;;3.10;;
65583;SDS011;62116;43.582;1.470;2022-08-01T12:32:38;5.95;;;3.28;;
65583;SDS011;62116;43.582;1.470;2022-08-01T12:35:09;4.68;;;3.00;;
65583;SDS011;62116;43.582;1.470;2022-08-01T12:37:40;4.53;;;2.70;;
65583;SDS011;62116;43.582;1.470;2022-08-01T12:40:09;4.22;;;2.80;;
65583;SDS011;62116;43.582;1.470;2022-08-01T12:42:43;4.10;;;2.55;;
65583;SDS011;62116;43.582;1.470;2022-08-01T12:47:57;4.25;;;2.30;;
65583;SDS011;62116;43.582;1.470;2022-08-01T12:50:25;4.85;;;2.30;;
65583;SDS011;62116;43.582;1.470;2022-08-01T12:52:53;4.25;;;2.22;;
65583;SDS011;62116;43.582;1.470;2022-08-01T12:55:19;7.32;;;2.28;;
65583;SDS011;62116;43.582;1.470;2022-08-01T12:57:50;5.20;;;2.58;;
65583;SDS011;62116;43.582;1.470;2022-08-01T13:00:38;5.00;;;2.40;;
65583;SDS011;62116;43.582;1.470;2022-08-01T13:03:08;6.18;;;2.60;;
65583;SDS011;62116;43.582;1.470;2022-08-01T13:08:37;6.60;;;2.17;;
65583;SDS011;62116;43.582;1.470;2022-08-01T13:11:07;5.47;;;2.03;;
65583;SDS011;62116;43.582;1.470;2022-08-01T13:13:38;4.43;;;2.50;;
65583;SDS011;62116;43.582;1.470;2022-08-01T13:16:04;4.70;;;2.27;;
65583;SDS011;62116;43.582;1.470;2022-08-01T13:18:31;2.92;;;1.95;;
65583;SDS011;62116;43.582;1.470;2022-08-01T13:21:07;4.82;;;2.15;;
65583;SDS011;62116;43.582;1.470;2022-08-01T13:23:37;3.78;;;2.17;;
65583;SDS011;62116;43.582;1.470;2022-08-01T13:26:03;2.42;;;1.85;;
65583;SDS011;62116;43.582;1.470;2022-08-01T13:28:29;4.28;;;2.08;;
65583;SDS011;62116;43.582;1.470;2022-08-01T13:30:57;2.83;;;1.98;;
65583;SDS011;62116;43.582;1.470;2022-08-01T13:33:25;4.50;;;2.35;;
65583;SDS011;62116;43.582;1.470;2022-08-01T13:35:54;4.07;;;2.47;;
65583;SDS011;62116;43.582;1.470;2022-08-01T13:38:21;3.40;;;2.25;;
65583;SDS011;62116;43.582;1.470;2022-08-01T13:41:06;4.03;;;2.30;;
65583;SDS011;62116;43.582;1.470;2022-08-01T13:43:31;3.30;;;2.10;;
65583;SDS011;62116;43.582;1.470;2022-08-01T13:45:57;3.22;;;2.30;;
65583;SDS011;62116;43.582;1.470;2022-08-01T13:48:23;8.43;;;2.63;;
65583;SDS011;62116;43.582;1.470;2022-08-01T13:50:48;5.22;;;2.25;;
65583;SDS011;62116;43.582;1.470;2022-08-01T13:53:13;4.47;;;2.47;;
65583;SDS011;62116;43.582;1.470;2022-08-01T13:55:39;5.88;;;2.50;;
65583;SDS011;62116;43.582;1.470;2022-08-01T13:58:04;5.20;;;2.50;;
65583;SDS011;62116;43.582;1.470;2022-08-01T14:00:31;5.82;;;2.50;;
65583;SDS011;62116;43.582;1.470;2022-08-01T14:02:57;5.13;;;2.40;;
65583;SDS011;62116;43.582;1.470;2022-08-01T14:05:22;4.43;;;2.50;;
65583;SDS011;62116;43.582;1.470;2022-08-01T14:07:48;5.10;;;2.30;;
65583;SDS011;62116;43.582;1.470;2022-08-01T14:10:13;4.63;;;2.30;;
65583;SDS011;62116;43.582;1.470;2022-08-01T14:12:38;4.10;;;2.38;;
65583;SDS011;62116;43.582;1.470;2022-08-01T14:15:04;4.80;;;2.38;;
65583;SDS011;62116;43.582;1.470;2022-08-01T14:17:30;4.57;;;2.35;;
65583;SDS011;62116;43.582;1.470;2022-08-01T14:19:55;6.78;;;2.67;;
65583;SDS011;62116;43.582;1.470;2022-08-01T14:22:21;6.90;;;2.53;;
65583;SDS011;62116;43.582;1.470;2022-08-01T14:24:46;4.50;;;2.42;;
65583;SDS011;62116;43.582;1.470;2022-08-01T14:27:13;4.10;;;2.80;;
65583;SDS011;62116;43.582;1.470;2022-08-01T14:29:39;7.18;;;2.70;;
65583;SDS011;62116;43.582;1.470;2022-08-01T14:32:04;4.18;;;2.47;;
65583;SDS011;62116;43.582;1.470;2022-08-01T14:34:30;4.72;;;2.42;;
65583;SDS011;62116;43.582;1.470;2022-08-01T14:36:56;6.78;;;2.20;;
65583;SDS011;62116;43.582;1.470;2022-08-01T14:39:21;4.55;;;2.58;;
65583;SDS011;62116;43.582;1.470;2022-08-01T14:41:47;4.18;;;2.30;;
65583;SDS011;62116;43.582;1.470;2022-08-01T14:44:12;4.50;;;2.10;;
65583;SDS011;62116;43.582;1.470;2022-08-01T14:46:37;5.90;;;2.30;;
65583;SDS011;62116;43.582;1.470;2022-08-01T14:49:03;3.35;;;2.17;;
65583;SDS011;62116;43.582;1.470;2022-08-01T14:51:28;10.68;;;2.35;;
65583;SDS011;62116;43.582;1.470;2022-08-01T14:53:57;6.50;;;2.40;;
65583;SDS011;62116;43.582;1.470;2022-08-01T14:56:23;3.80;;;2.33;;
65583;SDS011;62116;43.582;1.470;2022-08-01T14:58:48;7.75;;;2.40;;
65583;SDS011;62116;43.582;1.470;2022-08-01T15:01:14;4.60;;;2.13;;
65583;SDS011;62116;43.582;1.470;2022-08-01T15:03:40;8.88;;;2.55;;
65583;SDS011;62116;43.582;1.470;2022-08-01T15:06:05;3.92;;;2.20;;
65583;SDS011;62116;43.582;1.470;2022-08-01T15:08:31;4.18;;;2.10;;
65583;SDS011;62116;43.582;1.470;2022-08-01T15:10:57;6.32;;;2.00;;
65583;SDS011;62116;43.582;1.470;2022-08-01T15:13:22;3.80;;;2.10;;
65583;SDS011;62116;43.582;1.470;2022-08-01T15:15:48;4.38;;;2.10;;
65583;SDS011;62116;43.582;1.470;2022-08-01T15:18:13;7.38;;;2.30;;
65583;SDS011;62116;43.582;1.470;2022-08-01T15:20:39;4.45;;;2.10;;
65583;SDS011;62116;43.582;1.470;2022-08-01T15:23:04;4.88;;;2.10;;
65583;SDS011;62116;43.582;1.470;2022-08-01T15:25:30;4.10;;;1.80;;
65583;SDS011;62116;43.582;1.470;2022-08-01T15:27:55;3.85;;;1.92;;
65583;SDS011;62116;43.582;1.470;2022-08-01T15:30:21;3.83;;;1.70;;
65583;SDS011;62116;43.582;1.470;2022-08-01T15:32:46;3.08;;;1.85;;
65583;SDS011;62116;43.582;1.470;2022-08-01T15:35:11;4.70;;;1.70;;
65583;SDS011;62116;43.582;1.470;2022-08-01T15:37:37;5.57;;;1.70;;
65583;SDS011;62116;43.582;1.470;2022-08-01T15:40:03;4.28;;;1.85;;
65583;SDS011;62116;43.582;1.470;2022-08-01T15:42:29;6.63;;;1.98;;
65583;SDS011;62116;43.582;1.470;2022-08-01T15:44:54;5.32;;;1.70;;
65583;SDS011;62116;43.582;1.470;2022-08-01T15:47:20;5.63;;;1.90;;
65583;SDS011;62116;43.582;1.470;2022-08-01T15:49:45;4.22;;;1.75;;
65583;SDS011;62116;43.582;1.470;2022-08-01T15:52:10;3.53;;;1.70;;